Time;durP1;ratioP1;P1;durP2;ratioP2;P2;SDS_P1;SDS_P2;PMS_P1;PMS_P2;Temp;Humidity;BMP_temperature;BMP_pressure;BME280_temperature;BME280_humidity;BME280_pressure;Samples;Min_cycle;Max_cycle;Signal;HPM_P1;HPM_P2
2022/09/16 00:02:05;;;;;;;8.10;5.50;;;;;;;12.33;100.00;95672.88;108069;1268;25292;-78
2022/09/16 00:04:36;;;;;;;6.50;5.10;;;;;;;12.32;100.00;95675.35;108115;1268;22537;-78
2022/09/16 00:07:07;;;;;;;7.20;4.70;;;;;;;12.32;100.00;95677.16;108047;1270;22639;-78
2022/09/16 00:09:40;;;;;;;6.10;5.00;;;;;;;12.31;100.00;95680.86;108015;1267;28231;-77
2022/09/16 00:12:12;;;;;;;8.00;5.40;;;;;;;12.29;100.00;95682.35;108071;1268;22520;-78
2022/09/16 00:14:43;;;;;;;7.90;5.10;;;;;;;12.24;100.00;95683.73;108118;1268;22534;-78
2022/09/16 00:17:14;;;;;;;8.00;5.30;;;;;;;12.20;100.00;95693.41;108101;1268;22555;-78
2022/09/16 00:19:45;;;;;;;7.70;4.80;;;;;;;12.15;100.00;95698.13;108045;1268;29421;-78
2022/09/16 00:22:17;;;;;;;8.60;5.40;;;;;;;12.09;100.00;95701.41;108089;1268;22565;-78
2022/09/16 00:24:49;;;;;;;7.60;5.30;;;;;;;12.05;100.00;95701.81;108097;1270;22551;-78
2022/09/16 00:27:21;;;;;;;9.40;6.30;;;;;;;12.00;100.00;95709.66;108028;1270;22650;-78
2022/09/16 00:29:52;;;;;;;6.20;5.30;;;;;;;11.95;100.00;95712.88;108045;1268;26101;-78
2022/09/16 00:32:24;;;;;;;6.30;4.60;;;;;;;11.90;100.00;95711.06;108090;1268;22546;-78
2022/09/16 00:34:55;;;;;;;7.40;5.00;;;;;;;11.86;100.00;95712.73;107999;1270;22539;-78
2022/09/16 00:37:26;;;;;;;7.80;4.90;;;;;;;11.85;100.00;95710.09;108064;1268;25325;-78
2022/09/16 00:39:59;;;;;;;8.10;5.20;;;;;;;11.83;100.00;95715.02;108008;1268;26173;-78
2022/09/16 00:42:30;;;;;;;8.20;5.40;;;;;;;11.82;100.00;95715.09;108012;1270;25489;-78
2022/09/16 00:45:04;;;;;;;6.70;5.50;;;;;;;11.80;100.00;95715.89;108117;1268;22595;-78
2022/09/16 00:47:41;;;;;;;6.70;5.10;;;;;;;11.77;100.00;95714.23;108125;1268;23974;-78
2022/09/16 00:50:17;;;;;;;8.00;5.20;;;;;;;11.78;100.00;95713.20;108024;1268;31882;-78
2022/09/16 00:52:50;;;;;;;7.00;5.00;;;;;;;11.80;100.00;95710.30;108044;1270;23865;-78
2022/09/16 00:55:25;;;;;;;5.00;4.40;;;;;;;11.80;100.00;95710.77;108016;1270;22572;-78
2022/09/16 00:58:03;;;;;;;5.80;4.40;;;;;;;11.81;100.00;95710.20;108049;1270;22552;-78
2022/09/16 01:00:35;;;;;;;9.10;4.80;;;;;;;11.82;100.00;95711.27;108032;1268;34434;-78
2022/09/16 01:03:07;;;;;;;6.90;4.60;;;;;;;11.84;100.00;95709.58;108093;1268;22668;-78
2022/09/16 01:05:40;;;;;;;6.30;3.80;;;;;;;11.84;100.00;95706.96;108090;1268;22531;-78
2022/09/16 01:08:11;;;;;;;6.60;4.80;;;;;;;11.86;100.00;95710.90;108097;1268;22529;-77
2022/09/16 01:10:44;;;;;;;6.80;4.60;;;;;;;11.90;100.00;95711.06;108016;1268;29200;-78
2022/09/16 01:13:16;;;;;;;8.70;4.80;;;;;;;11.93;100.00;95709.00;108050;1270;22529;-78
2022/09/16 01:15:56;;;;;;;6.10;4.40;;;;;;;11.94;100.00;95713.44;108114;1268;22526;-78
2022/09/16 01:18:35;;;;;;;6.10;4.10;;;;;;;11.95;100.00;95707.41;108030;1268;28805;-77
2022/09/16 01:21:22;;;;;;;6.70;4.60;;;;;;;11.98;100.00;95704.52;108111;1268;22574;-78
2022/09/16 01:24:11;;;;;;;6.10;4.20;;;;;;;12.01;100.00;95708.09;108083;1268;24266;-77
2022/09/16 01:27:18;;;;;;;6.90;4.10;;;;;;;12.03;100.00;95711.31;108052;1270;22567;-77
2022/09/16 01:30:32;;;;;;;5.60;3.90;;;;;;;12.04;100.00;95710.13;108018;1268;30846;-77
2022/09/16 01:33:07;;;;;;;5.50;4.50;;;;;;;12.08;100.00;95717.59;108103;1268;22542;-77
2022/09/16 01:35:54;;;;;;;5.20;3.90;;;;;;;12.12;100.00;95716.38;108110;1268;22528;-77
2022/09/16 01:38:36;;;;;;;7.60;4.60;;;;;;;12.16;100.00;95715.75;107956;1270;35956;-77
2022/09/16 01:41:17;;;;;;;8.30;4.40;;;;;;;12.17;100.00;95718.09;106942;1268;1515852;-77
2022/09/16 01:43:56;;;;;;;5.90;4.00;;;;;;;12.21;100.00;95716.59;108085;1268;22546;-77
2022/09/16 01:46:36;;;;;;;7.30;4.40;;;;;;;12.24;100.00;95728.67;108108;1268;23751;-77
2022/09/16 01:49:18;;;;;;;5.90;4.00;;;;;;;12.23;100.00;95722.23;107906;1268;35116;-77
2022/09/16 01:51:55;;;;;;;6.90;4.50;;;;;;;12.23;100.00;95719.13;108075;1268;24830;-77
2022/09/16 01:54:33;;;;;;;7.60;5.30;;;;;;;12.24;100.00;95725.30;108143;1268;25375;-77
2022/09/16 01:57:11;;;;;;;10.30;4.70;;;;;;;12.21;99.95;95723.66;108098;1270;22536;-77
2022/09/16 01:59:48;;;;;;;8.30;5.10;;;;;;;12.18;99.98;95723.09;108045;1268;34043;-77
2022/09/16 02:02:24;;;;;;;8.40;4.90;;;;;;;12.17;100.00;95721.06;108088;1268;22627;-77
2022/09/16 02:04:57;;;;;;;6.10;4.40;;;;;;;12.18;100.00;95719.91;108177;1267;22546;-77
2022/09/16 02:07:35;;;;;;;7.80;4.80;;;;;;;12.22;100.00;95722.73;108102;1268;22550;-77
2022/09/16 02:10:13;;;;;;;6.60;4.70;;;;;;;12.28;100.00;95726.25;107998;1270;25273;-77
2022/09/16 02:12:49;;;;;;;6.00;4.40;;;;;;;12.31;100.00;95731.35;108161;1268;24335;-77
2022/09/16 02:15:23;;;;;;;7.00;4.80;;;;;;;12.30;100.00;95731.07;108178;1267;24268;-77
2022/09/16 02:18:00;;;;;;;6.90;5.10;;;;;;;12.29;100.00;95733.07;108062;1268;22708;-77
2022/09/16 02:20:36;;;;;;;7.20;4.60;;;;;;;12.27;99.89;95735.79;108140;1268;26317;-77
2022/09/16 02:23:12;;;;;;;7.90;5.20;;;;;;;12.24;99.98;95735.65;108216;1267;22542;-77
2022/09/16 02:25:46;;;;;;;8.00;5.30;;;;;;;12.25;100.00;95735.16;108184;1267;22857;-77
2022/09/16 02:28:25;;;;;;;7.80;5.10;;;;;;;12.26;100.00;95739.33;108164;1268;22653;-77
2022/09/16 02:31:00;;;;;;;6.50;5.20;;;;;;;12.24;100.00;95740.55;108139;1268;23840;-77
2022/09/16 02:33:33;;;;;;;7.90;4.90;;;;;;;12.19;100.00;95734.29;108177;1267;24030;-77
2022/09/16 02:36:07;;;;;;;6.30;4.80;;;;;;;12.17;100.00;95737.67;108095;1266;22549;-77
2022/09/16 02:38:41;;;;;;;6.40;5.10;;;;;;;12.16;100.00;95736.36;108148;1267;23693;-77
2022/09/16 02:41:13;;;;;;;9.00;5.50;;;;;;;12.20;100.00;95738.05;108186;1268;23847;-77
2022/09/16 02:43:46;;;;;;;7.80;5.60;;;;;;;12.23;100.00;95740.83;108202;1267;25263;-77
2022/09/16 02:46:24;;;;;;;8.60;5.40;;;;;;;12.21;100.00;95740.95;108067;1270;22646;-77
2022/09/16 02:49:09;;;;;;;6.40;5.50;;;;;;;12.21;100.00;95747.48;108134;1268;29528;-77
2022/09/16 02:51:55;;;;;;;7.10;6.00;;;;;;;12.26;100.00;95745.23;108169;1268;23229;-77
2022/09/16 02:54:36;;;;;;;7.90;5.60;;;;;;;12.30;100.00;95741.84;108092;1268;26415;-77
2022/09/16 02:57:09;;;;;;;8.50;5.60;;;;;;;12.29;100.00;95743.85;108122;1268;23151;-77
2022/09/16 02:59:42;;;;;;;7.90;5.70;;;;;;;12.29;100.00;95743.39;108087;1268;25863;-77
2022/09/16 03:02:14;;;;;;;6.60;5.20;;;;;;;12.29;100.00;95742.59;108193;1268;22548;-77
2022/09/16 03:04:45;;;;;;;6.80;4.70;;;;;;;12.28;100.00;95743.83;108199;1267;22762;-77
2022/09/16 03:07:18;;;;;;;7.20;4.80;;;;;;;12.27;99.83;95738.70;108184;1268;24026;-77
2022/09/16 03:09:51;;;;;;;6.80;4.50;;;;;;;12.24;99.57;95739.11;108129;1267;28661;-77
2022/09/16 03:12:52;;;;;;;6.80;5.00;;;;;;;12.22;99.68;95741.64;108140;1267;22544;-77
2022/09/16 03:15:34;;;;;;;5.30;4.80;;;;;;;12.22;99.70;95742.09;108124;1268;22540;-77
2022/09/16 03:18:31;;;;;;;7.70;4.70;;;;;;;12.17;99.50;95746.58;108157;1268;23819;-77
2022/09/16 03:21:13;;;;;;;7.50;4.30;;;;;;;12.13;99.62;95743.89;108210;1268;22534;-77
2022/09/16 03:23:56;;;;;;;6.40;4.60;;;;;;;12.11;99.57;95737.24;108186;1268;22738;-77
2022/09/16 03:26:36;;;;;;;5.60;4.40;;;;;;;12.09;99.53;95739.79;108167;1268;24025;-77
2022/09/16 03:29:21;;;;;;;6.40;5.00;;;;;;;12.10;99.41;95738.05;108143;1267;38871;-77
2022/09/16 03:31:58;;;;;;;5.90;4.60;;;;;;;12.11;99.35;95733.41;108193;1268;24408;-77
2022/09/16 03:34:33;;;;;;;7.20;5.00;;;;;;;12.10;99.40;95736.52;108185;1267;26516;-77
2022/09/16 03:37:08;;;;;;;7.80;4.80;;;;;;;12.08;99.45;95735.07;108227;1268;22693;-77
2022/09/16 03:39:41;;;;;;;8.80;4.90;;;;;;;12.07;99.38;95732.98;108036;1268;33054;-77
2022/09/16 03:42:14;;;;;;;6.60;4.90;;;;;;;12.09;99.39;95727.79;108181;1268;25373;-77
2022/09/16 03:44:45;;;;;;;8.30;5.00;;;;;;;12.09;99.56;95723.63;108171;1267;25267;-77
2022/09/16 03:47:17;;;;;;;7.60;5.10;;;;;;;12.07;99.38;95722.94;108215;1265;22536;-77
2022/09/16 03:49:50;;;;;;;5.70;5.10;;;;;;;12.05;99.33;95720.03;108142;1267;23630;-77
2022/09/16 03:52:21;;;;;;;8.40;5.00;;;;;;;12.05;99.42;95722.22;108188;1268;26589;-77
2022/09/16 03:54:52;;;;;;;7.10;4.70;;;;;;;12.04;99.31;95722.66;108108;1268;24019;-77
2022/09/16 03:57:23;;;;;;;6.30;5.00;;;;;;;12.05;99.32;95724.72;108245;1267;23834;-77
2022/09/16 03:59:54;;;;;;;6.70;4.90;;;;;;;12.02;99.19;95719.47;108128;1267;31971;-77
2022/09/16 04:02:25;;;;;;;10.50;5.00;;;;;;;12.00;99.18;95718.28;108202;1267;24191;-77
2022/09/16 04:04:59;;;;;;;7.40;5.00;;;;;;;11.98;99.30;95716.16;108210;1267;24208;-77
2022/09/16 04:07:32;;;;;;;6.20;4.80;;;;;;;11.96;99.30;95717.57;108169;1267;26711;-77
2022/09/16 04:10:03;;;;;;;7.00;5.50;;;;;;;11.96;99.48;95722.34;108149;1267;29056;-77
2022/09/16 04:12:35;;;;;;;6.40;4.90;;;;;;;11.99;99.65;95729.09;108201;1268;22551;-77
2022/09/16 04:15:08;;;;;;;7.90;4.90;;;;;;;11.98;99.47;95728.31;108208;1267;23815;-77
2022/09/16 04:17:39;;;;;;;7.40;4.80;;;;;;;11.98;99.45;95730.34;108227;1267;22540;-77
2022/09/16 04:20:12;;;;;;;5.40;4.60;;;;;;;11.96;99.42;95733.63;108154;1267;26845;-77
2022/09/16 04:22:43;;;;;;;7.10;5.10;;;;;;;11.94;99.24;95733.41;108146;1268;22790;-77
2022/09/16 04:25:14;;;;;;;6.20;4.80;;;;;;;11.95;99.38;95736.84;108179;1267;22539;-77
2022/09/16 04:27:46;;;;;;;6.40;4.60;;;;;;;11.92;99.22;95744.03;108178;1267;22544;-77
2022/09/16 04:30:19;;;;;;;7.50;4.90;;;;;;;11.90;99.15;95747.86;108130;1267;36150;-77
2022/09/16 04:32:56;;;;;;;10.70;6.40;;;;;;;11.88;99.06;95745.27;108143;1268;22540;-77
2022/09/16 04:35:27;;;;;;;6.60;4.50;;;;;;;11.89;99.08;95741.62;108166;1267;26779;-77
2022/09/16 04:37:58;;;;;;;7.60;5.30;;;;;;;11.87;98.92;95746.52;108129;1268;22564;-77
2022/09/16 04:40:31;;;;;;;8.20;5.10;;;;;;;11.81;98.74;95746.61;108111;1267;37031;-77
2022/09/16 04:43:02;;;;;;;5.80;4.90;;;;;;;11.77;98.84;95749.44;108159;1267;22611;-77
2022/09/16 04:45:34;;;;;;;6.20;5.10;;;;;;;11.76;98.87;95744.13;108185;1267;22736;-77
2022/09/16 04:48:05;;;;;;;7.40;4.80;;;;;;;11.78;99.02;95747.67;108172;1265;22574;-77
2022/09/16 04:50:36;;;;;;;5.00;4.00;;;;;;;11.78;99.01;95749.22;108120;1267;29544;-77
2022/09/16 04:53:08;;;;;;;6.40;4.40;;;;;;;11.75;98.95;95755.31;108095;1268;25290;-77
2022/09/16 04:55:40;;;;;;;6.90;4.40;;;;;;;11.73;98.79;95757.21;108173;1267;22654;-77
2022/09/16 04:58:12;;;;;;;9.40;4.70;;;;;;;11.69;98.69;95755.56;108116;1268;22555;-77
2022/09/16 05:00:44;;;;;;;6.30;4.30;;;;;;;11.67;98.77;95760.50;108106;1267;28088;-78
2022/09/16 05:03:16;;;;;;;7.30;4.70;;;;;;;11.70;98.97;95768.91;108176;1267;22544;-77
2022/09/16 05:05:50;;;;;;;7.60;4.70;;;;;;;11.93;99.41;95773.34;108180;1265;22566;-77
2022/09/16 05:08:21;;;;;;;5.00;4.30;;;;;;;12.18;99.11;95775.77;108102;1267;42332;-77
2022/09/16 05:10:52;;;;;;;8.10;5.00;;;;;;;12.25;98.67;95777.02;108152;1267;22551;-77
2022/09/16 05:13:24;;;;;;;7.50;4.30;;;;;;;12.40;98.86;95780.05;108184;1267;25290;-77
2022/09/16 05:15:56;;;;;;;5.70;4.60;;;;;;;12.55;98.53;95778.46;108104;1268;22666;-77
2022/09/16 05:18:27;;;;;;;6.90;4.60;;;;;;;12.69;98.14;95778.35;108104;1267;27461;-77
2022/09/16 05:21:01;;;;;;;5.70;4.20;;;;;;;12.69;97.36;95777.06;108187;1267;22657;-77
2022/09/16 05:23:33;;;;;;;8.60;4.50;;;;;;;12.70;97.54;95774.41;108209;1265;22536;-77
2022/09/16 05:26:08;;;;;;;6.50;5.00;;;;;;;12.77;97.47;95776.95;108158;1268;22558;-77
2022/09/16 05:28:42;;;;;;;8.90;4.70;;;;;;;12.78;96.93;95782.33;108125;1267;29791;-77
2022/09/16 05:31:16;;;;;;;7.10;4.40;;;;;;;12.99;97.43;95781.55;108176;1267;22625;-77
2022/09/16 05:33:53;;;;;;;4.20;3.30;;;;;;;13.93;98.18;95784.99;108192;1267;23735;-78
2022/09/16 05:36:25;;;;;;;6.20;3.70;;;;;;;15.12;95.77;95786.38;108099;1268;25373;-78
2022/09/16 05:38:57;;;;;;;6.80;2.90;;;;;;;16.08;93.91;95788.31;108243;1268;25359;-78
2022/09/16 05:41:29;;;;;;;5.30;3.10;;;;;;;17.19;91.08;95779.04;108157;1268;22552;-79
2022/09/16 05:44:01;;;;;;;4.90;3.30;;;;;;;18.03;87.84;95772.09;108164;1268;22622;-78
2022/09/16 05:46:33;;;;;;;5.30;2.60;;;;;;;18.91;84.48;95774.04;108216;1267;23945;-78
2022/09/16 05:49:05;;;;;;;5.10;3.00;;;;;;;19.77;82.30;95772.52;108109;1267;36514;-78
2022/09/16 05:51:36;;;;;;;4.60;2.70;;;;;;;20.13;77.24;95771.29;108196;1267;22554;-78
2022/09/16 05:54:08;;;;;;;5.90;2.90;;;;;;;20.04;75.51;95767.08;108242;1267;24181;-78
2022/09/16 05:56:39;;;;;;;5.70;3.00;;;;;;;19.72;74.20;95761.73;108211;1267;24230;-78
2022/09/16 05:59:14;;;;;;;5.10;2.70;;;;;;;19.35;72.83;95762.73;108122;1267;32753;-78
2022/09/16 06:01:45;;;;;;;5.10;3.00;;;;;;;19.08;72.18;95762.89;108169;1267;22523;-78
2022/09/16 06:04:17;;;;;;;4.20;2.50;;;;;;;18.44;69.64;95761.70;108207;1267;24993;-79
2022/09/16 06:06:49;;;;;;;4.50;2.50;;;;;;;17.57;70.09;95758.34;108140;1267;22552;-79
2022/09/16 06:09:25;;;;;;;4.30;2.80;;;;;;;16.84;70.50;95754.65;107963;1268;38714;-78
2022/09/16 06:11:56;;;;;;;4.40;2.80;;;;;;;16.35;70.75;95750.80;108183;1267;22734;-78
2022/09/16 06:14:27;;;;;;;3.80;2.40;;;;;;;16.11;71.86;95746.09;108111;1268;22771;-78
2022/09/16 06:16:59;;;;;;;4.40;2.50;;;;;;;16.05;71.07;95743.23;108171;1267;26437;-78
2022/09/16 06:19:30;;;;;;;5.70;3.20;;;;;;;15.74;72.79;95745.95;108172;1267;28874;-78
2022/09/16 06:22:01;;;;;;;3.10;2.80;;;;;;;15.80;73.65;95739.98;108169;1267;22625;-78
2022/09/16 06:24:32;;;;;;;3.40;2.50;;;;;;;16.08;74.56;95733.63;108177;1267;22523;-78
2022/09/16 06:27:04;;;;;;;5.50;2.90;;;;;;;16.27;73.66;95729.48;108181;1267;24132;-78
2022/09/16 06:29:35;;;;;;;3.40;2.70;;;;;;;16.15;73.53;95728.70;108085;1267;31431;-78
2022/09/16 06:32:06;;;;;;;3.20;2.30;;;;;;;16.25;73.28;95729.25;108140;1267;23063;-78
2022/09/16 06:34:37;;;;;;;3.40;2.50;;;;;;;16.69;73.56;95731.65;108104;1268;23812;-78
2022/09/16 06:37:11;;;;;;;3.80;2.30;;;;;;;17.07;71.78;95728.68;108172;1267;22619;-78
2022/09/16 06:39:42;;;;;;;3.60;2.30;;;;;;;17.12;70.91;95733.80;108101;1267;32326;-78
2022/09/16 06:42:14;;;;;;;3.80;2.50;;;;;;;17.31;70.44;95737.44;108192;1267;23263;-78
2022/09/16 06:44:45;;;;;;;3.90;2.60;;;;;;;17.89;69.93;95737.42;108166;1267;22624;-78
2022/09/16 06:47:16;;;;;;;5.00;2.50;;;;;;;18.62;69.43;95739.20;108217;1267;22714;-79
2022/09/16 06:49:47;;;;;;;3.50;2.10;;;;;;;19.84;68.95;95734.34;107992;1270;25614;-78
2022/09/16 06:52:21;;;;;;;4.20;2.10;;;;;;;20.94;66.21;95726.31;108085;1268;23237;-78
2022/09/16 06:54:52;;;;;;;3.80;2.50;;;;;;;21.43;62.14;95722.52;108212;1267;22589;-79
2022/09/16 06:57:23;;;;;;;4.40;2.40;;;;;;;21.86;61.21;95720.40;108215;1268;22660;-79
2022/09/16 06:59:55;;;;;;;5.00;2.50;;;;;;;22.53;59.30;95721.69;108138;1268;27866;-79
2022/09/16 07:02:27;;;;;;;3.30;2.10;;;;;;;22.90;57.58;95732.04;108199;1267;24147;-79
2022/09/16 07:05:00;;;;;;;4.30;2.30;;;;;;;22.75;54.93;95745.77;108211;1268;22544;-78
2022/09/16 07:07:35;;;;;;;3.60;2.20;;;;;;;22.88;54.29;95742.52;108214;1267;23419;-79
2022/09/16 07:10:08;;;;;;;4.10;1.90;;;;;;;23.32;54.17;95743.48;107980;1268;30311;-78
2022/09/16 07:12:39;;;;;;;4.00;2.40;;;;;;;23.87;53.11;95745.57;108131;1270;22555;-78
2022/09/16 07:15:12;;;;;;;4.10;2.00;;;;;;;24.37;52.91;95751.50;108086;1270;22747;-78
2022/09/16 07:17:43;;;;;;;2.70;1.60;;;;;;;24.85;52.17;95750.42;108148;1270;25056;-78
2022/09/16 07:20:14;;;;;;;3.00;1.60;;;;;;;24.91;47.51;95750.17;108008;1268;24873;-77
2022/09/16 07:22:49;;;;;;;1.90;1.40;;;;;;;23.87;47.47;95757.63;108073;1270;24169;-78
2022/09/16 07:25:20;;;;;;;2.50;1.40;;;;;;;23.02;47.80;95758.96;108088;1268;24523;-78
2022/09/16 07:27:52;;;;;;;3.00;1.70;;;;;;;22.80;49.01;95759.61;108079;1268;24473;-78
2022/09/16 07:30:23;;;;;;;2.40;1.30;;;;;;;23.38;49.72;95754.48;107988;1268;31455;-78
2022/09/16 07:32:54;;;;;;;2.80;1.30;;;;;;;22.62;48.53;95748.00;108107;1270;22572;-78
2022/09/16 07:35:25;;;;;;;2.40;1.40;;;;;;;22.82;48.02;95744.86;108090;1270;24229;-78
2022/09/16 07:37:56;;;;;;;3.80;1.40;;;;;;;22.44;47.25;95736.45;108030;1268;24100;-78
2022/09/16 07:40:28;;;;;;;5.10;1.60;;;;;;;22.41;46.34;95734.80;107996;1268;29808;-78
2022/09/16 07:43:01;;;;;;;3.10;1.30;;;;;;;21.57;47.88;95733.84;108066;1270;22611;-78
2022/09/16 07:45:33;;;;;;;3.40;1.50;;;;;;;21.86;49.06;95725.17;108041;1270;22595;-78
2022/09/16 07:48:04;;;;;;;3.00;2.00;;;;;;;23.07;49.07;95723.20;108045;1270;22558;-78
2022/09/16 07:50:35;;;;;;;3.70;1.50;;;;;;;24.15;47.61;95719.52;107984;1270;30231;-78
2022/09/16 07:53:06;;;;;;;3.90;1.50;;;;;;;25.60;47.55;95714.07;108025;1269;23889;-78
2022/09/16 07:55:38;;;;;;;4.10;1.90;;;;;;;25.92;43.80;95722.20;108057;1270;22658;-79
2022/09/16 07:58:09;;;;;;;4.50;1.80;;;;;;;25.02;43.20;95730.30;108020;1270;22556;-79
2022/09/16 08:00:40;;;;;;;3.60;1.10;;;;;;;24.78;45.25;95737.35;107973;1270;33948;-78
2022/09/16 08:03:11;;;;;;;1.70;1.40;;;;;;;25.74;44.00;95732.77;107930;1270;26776;-79
2022/09/16 08:05:42;;;;;;;1.80;1.60;;;;;;;25.58;41.56;95730.92;108057;1269;22674;-79
2022/09/16 08:08:13;;;;;;;2.50;1.50;;;;;;;25.77;42.03;95732.61;107985;1270;22560;-79
2022/09/16 08:10:52;;;;;;;4.60;1.60;;;;;;;25.93;42.17;95735.14;108020;1270;24248;-79
2022/09/16 08:13:24;;;;;;;2.20;1.50;;;;;;;24.95;41.84;95735.31;107957;1270;22555;-79
2022/09/16 08:16:02;;;;;;;5.00;1.90;;;;;;;22.47;42.54;95734.31;108068;1270;22770;-78
2022/09/16 08:18:34;;;;;;;2.20;1.50;;;;;;;20.84;46.17;95739.27;107915;1270;25009;-78
2022/09/16 08:21:09;;;;;;;3.20;1.50;;;;;;;21.13;47.92;95738.02;107989;1270;22532;-78
2022/09/16 08:23:41;;;;;;;3.10;1.90;;;;;;;22.01;47.26;95740.89;107939;1270;22561;-78
2022/09/16 08:26:16;;;;;;;4.50;1.80;;;;;;;21.89;47.73;95741.40;108015;1270;24205;-78
2022/09/16 08:28:49;;;;;;;3.40;1.80;;;;;;;22.79;47.27;95734.98;107872;1270;32782;-78
2022/09/16 08:31:21;;;;;;;4.20;1.80;;;;;;;22.41;46.29;95737.87;108045;1270;22544;-78
2022/09/16 08:33:52;;;;;;;3.00;1.80;;;;;;;20.50;47.30;95743.98;108085;1270;22562;-78
2022/09/16 08:36:26;;;;;;;3.00;2.00;;;;;;;18.75;50.58;95751.27;108035;1270;23796;-78
2022/09/16 08:38:58;;;;;;;4.80;2.30;;;;;;;17.59;53.21;95750.27;108003;1270;23488;-78
2022/09/16 08:42:14;;;;;;;3.50;1.90;;;;;;;16.88;55.20;95749.41;108138;1268;22523;-78
2022/09/16 08:44:55;;;;;;;3.40;2.00;;;;;;;16.29;56.65;95746.80;107731;1274;26505;-78
2022/09/16 08:47:41;;;;;;;3.50;2.10;;;;;;;16.14;57.58;95750.67;108105;1268;24360;-78
2022/09/16 08:50:19;;;;;;;4.00;2.40;;;;;;;15.88;58.30;95752.02;108037;1268;27772;-78
2022/09/16 08:52:53;;;;;;;5.00;2.70;;;;;;;15.71;58.69;95754.34;108075;1268;22617;-78
2022/09/16 08:55:30;;;;;;;4.40;1.80;;;;;;;15.85;58.80;95751.37;108083;1269;22667;-78
2022/09/16 08:58:06;;;;;;;4.00;1.60;;;;;;;16.69;58.69;95748.56;108048;1270;22692;-78
2022/09/16 09:00:39;;;;;;;3.20;1.50;;;;;;;16.66;56.85;95743.56;107975;1270;41790;-78
2022/09/16 09:03:19;;;;;;;2.40;1.80;;;;;;;16.52;57.32;95742.83;108064;1270;22610;-78
2022/09/16 09:05:53;;;;;;;3.50;1.30;;;;;;;17.10;57.31;95739.64;108093;1270;23020;-78
2022/09/16 09:08:40;;;;;;;1.70;1.10;;;;;;;17.01;56.03;95741.81;108000;1270;28608;-77
2022/09/16 09:11:20;;;;;;;3.10;1.20;;;;;;;16.87;54.57;95737.91;108037;1270;24063;-78
2022/09/16 09:14:06;;;;;;;1.70;1.30;;;;;;;16.95;54.47;95737.38;108040;1270;22493;-78
2022/09/16 09:16:46;;;;;;;4.00;1.20;;;;;;;17.13;54.35;95730.98;108024;1270;22621;-78
2022/09/16 09:19:32;;;;;;;2.60;1.10;;;;;;;16.91;53.84;95741.24;108007;1270;25673;-78
2022/09/16 09:22:12;;;;;;;5.70;1.40;;;;;;;16.82;54.72;95745.11;107950;1270;24077;-78
2022/09/16 09:24:52;;;;;;;3.50;1.20;;;;;;;16.68;55.16;95741.63;108067;1270;22520;-78
2022/09/16 09:27:31;;;;;;;3.60;1.40;;;;;;;16.37;54.59;95739.41;108093;1269;22529;-78
2022/09/16 09:30:14;;;;;;;1.60;0.90;;;;;;;16.04;55.39;95743.88;107962;1270;26482;-78
2022/09/16 09:33:00;;;;;;;2.60;1.10;;;;;;;15.90;55.26;95748.18;108110;1268;24269;-78
2022/09/16 09:35:48;;;;;;;3.00;1.30;;;;;;;16.02;56.02;95747.10;108099;1268;22548;-78
2022/09/16 09:38:42;;;;;;;3.30;1.10;;;;;;;16.34;56.21;95744.14;108036;1268;30296;-78
2022/09/16 09:41:17;;;;;;;3.00;1.20;;;;;;;16.74;55.55;95732.57;108021;1270;24234;-78
2022/09/16 09:43:56;;;;;;;2.00;1.00;;;;;;;16.54;54.56;95739.84;108037;1270;22564;-78
2022/09/16 09:46:34;;;;;;;2.70;0.80;;;;;;;16.35;55.32;95737.67;108131;1268;26440;-79
2022/09/16 09:49:13;;;;;;;4.80;1.80;;;;;;;16.19;55.07;95740.31;108029;1270;23176;-78
2022/09/16 09:51:49;;;;;;;2.20;1.10;;;;;;;16.11;56.29;95736.23;108074;1269;22564;-78
2022/09/16 09:54:28;;;;;;;1.90;1.30;;;;;;;16.42;56.74;95735.73;108039;1269;25473;-78
2022/09/16 09:57:05;;;;;;;1.70;1.20;;;;;;;16.83;56.69;95741.94;108014;1270;22614;-78
2022/09/16 09:59:42;;;;;;;2.00;1.20;;;;;;;17.11;56.15;95739.88;108001;1268;43971;-78
2022/09/16 10:02:18;;;;;;;2.70;1.30;;;;;;;17.29;55.90;95738.62;108002;1270;24216;-78
2022/09/16 10:04:50;;;;;;;3.20;1.00;;;;;;;17.39;55.60;95732.74;108111;1268;22618;-78
2022/09/16 10:07:27;;;;;;;2.50;0.90;;;;;;;17.41;54.94;95729.65;108110;1269;26479;-78
2022/09/16 10:10:04;;;;;;;3.50;1.20;;;;;;;17.36;55.06;95730.70;107820;1270;28945;-78
2022/09/16 10:12:36;;;;;;;3.00;1.20;;;;;;;17.10;52.77;95727.70;108034;1270;22549;-78
2022/09/16 10:15:19;;;;;;;3.70;1.40;;;;;;;16.85;54.44;95739.48;108025;1270;24235;-78
2022/09/16 10:17:53;;;;;;;3.10;1.30;;;;;;;17.17;55.08;95737.23;108094;1270;26564;-78
2022/09/16 10:20:29;;;;;;;2.20;1.10;;;;;;;17.31;53.73;95734.54;108075;1270;28537;-78
2022/09/16 10:23:03;;;;;;;2.30;1.00;;;;;;;17.18;53.57;95732.82;108107;1270;26609;-79
2022/09/16 10:25:35;;;;;;;2.10;1.00;;;;;;;17.03;54.02;95727.50;108096;1270;22555;-78
2022/09/16 10:28:18;;;;;;;3.30;0.70;;;;;;;16.89;53.58;95729.02;108076;1270;23355;-78
2022/09/16 10:30:53;;;;;;;3.20;1.10;;;;;;;16.76;53.92;95726.83;108108;1269;24277;-78
2022/09/16 10:33:29;;;;;;;5.40;1.60;;;;;;;16.70;54.23;95720.36;108056;1270;22526;-78
2022/09/16 10:36:03;;;;;;;3.00;1.20;;;;;;;16.80;54.87;95722.88;108049;1270;22532;-78
2022/09/16 10:38:39;;;;;;;2.40;1.30;;;;;;;16.91;55.59;95727.39;108071;1269;30396;-78
2022/09/16 10:41:16;;;;;;;2.80;1.60;;;;;;;17.09;55.83;95722.71;108087;1269;22997;-79
2022/09/16 10:43:51;;;;;;;2.60;1.30;;;;;;;17.01;54.92;95723.41;108109;1270;22556;-79
2022/09/16 10:46:23;;;;;;;3.30;1.40;;;;;;;16.89;54.86;95725.81;108098;1268;22542;-78
2022/09/16 10:48:59;;;;;;;3.50;1.40;;;;;;;16.80;54.65;95718.75;108048;1270;26690;-79
2022/09/16 10:51:33;;;;;;;1.40;1.10;;;;;;;16.75;54.81;95720.73;108118;1269;23751;-79
2022/09/16 10:54:06;;;;;;;1.80;1.00;;;;;;;16.62;54.89;95723.34;108040;1270;25341;-79
2022/09/16 10:56:49;;;;;;;3.10;1.30;;;;;;;16.49;55.55;95725.99;108077;1270;22581;-78
2022/09/16 10:59:21;;;;;;;3.30;1.50;;;;;;;16.37;56.09;95725.27;108050;1268;32863;-79
2022/09/16 11:02:04;;;;;;;3.70;1.50;;;;;;;16.37;56.85;95725.35;108107;1269;23827;-78
2022/09/16 11:04:49;;;;;;;2.20;1.30;;;;;;;16.39;56.89;95726.01;108128;1270;22527;-78
2022/09/16 11:07:32;;;;;;;1.80;1.20;;;;;;;16.48;57.60;95722.22;108027;1270;22529;-78
2022/09/16 11:10:13;;;;;;;6.50;1.70;;;;;;;16.63;57.62;95729.19;108000;1270;35308;-78
2022/09/16 11:12:58;;;;;;;2.80;1.50;;;;;;;16.98;58.96;95721.92;108096;1268;22544;-78
2022/09/16 11:15:41;;;;;;;3.80;1.60;;;;;;;17.30;58.22;95720.95;108102;1269;22538;-78
2022/09/16 11:18:24;;;;;;;2.10;1.60;;;;;;;17.25;57.04;95721.91;108080;1268;22533;-78
2022/09/16 11:21:14;;;;;;;2.70;1.60;;;;;;;17.28;57.09;95719.98;108107;1268;22610;-78
2022/09/16 11:24:05;;;;;;;3.20;1.40;;;;;;;17.29;58.34;95716.12;108046;1270;22539;-78
2022/09/16 11:26:52;;;;;;;2.10;1.40;;;;;;;17.58;58.21;95711.81;108139;1268;22559;-79
2022/09/16 11:29:39;;;;;;;3.90;1.80;;;;;;;17.85;57.69;95706.16;108032;1270;27881;-78
2022/09/16 11:32:21;;;;;;;2.90;1.60;;;;;;;18.07;57.57;95708.20;108092;1268;22546;-79
2022/09/16 11:35:09;;;;;;;2.90;1.60;;;;;;;18.19;57.01;95702.56;108070;1270;22530;-79
2022/09/16 11:37:49;;;;;;;3.50;1.30;;;;;;;18.17;55.80;95701.23;108060;1270;24249;-79
2022/09/16 11:40:32;;;;;;;2.70;1.60;;;;;;;17.84;54.39;95701.31;107988;1270;29505;-78
2022/09/16 11:43:18;;;;;;;4.20;1.40;;;;;;;17.59;53.63;95695.67;108102;1270;22558;-79
2022/09/16 11:45:56;;;;;;;3.50;0.80;;;;;;;17.32;53.26;95700.20;108031;1270;24170;-78
2022/09/16 11:48:44;;;;;;;2.10;1.20;;;;;;;17.09;53.74;95698.29;107985;1270;24735;-78
2022/09/16 11:51:29;;;;;;;2.90;1.10;;;;;;;17.10;55.40;95693.81;108063;1270;22696;-79
2022/09/16 11:54:13;;;;;;;2.20;1.10;;;;;;;17.15;54.72;95686.89;108070;1270;25292;-79
2022/09/16 11:56:48;;;;;;;3.90;1.10;;;;;;;17.13;54.64;95688.00;108066;1268;22547;-79
2022/09/16 11:59:29;;;;;;;2.20;1.40;;;;;;;17.12;54.26;95691.02;108039;1270;39305;-78
2022/09/16 12:02:02;;;;;;;;;;;;;;;17.10;54.50;95694.80;108076;1270;25296;-78
2022/09/16 12:04:42;;;;;;;2.50;1.00;;;;;;;17.25;54.72;95696.41;107993;1270;22561;-78